Hattiesburg Laurel Regional Airport Hattiesburg,Laurel US
ICAO: KPIB
IATA: PIB
Category: Medium
Scheduled Services: Yes

Elevation: 298 ft
TransAlt. 18000 ft.

Airport Communications:
AWOS 3:128.325
HOUSTON CNTR:126.8
CTAF/UNICOM:123

KPIB Zoom In..

Runways:

(A) RW 18 length 6502 ft width 150 ft
ILS 109.50 / hdg 181

(B) RW 36 length 6502 ft width 150 ft
---- / hdg 1

Location; KPIB
Day. 14 / Time. 00.56 Zulu
* Altimeter: 29.97
* Temperature: 26° c. 78.8°f.
* Wind from: 000° Speed 00 kn.
Dewpoint: 24° c.
Visibility: 10 Statute Miles.
Clouds: Clear (automated report).

KPIB 140056Z AUTO 00000KT 10SM CLR 26/24 A2997 RMK AO2 SLP146 T02610239

Going to: --> -->


Wind - Calm.

 
 
jpsmedia worldairports.se 2020   terms of use